Time;durP1;ratioP1;P1;durP2;ratioP2;P2;SDS_P1;SDS_P2;PMS_P1;PMS_P2;Temp;Humidity;BMP_temperature;BMP_pressure;BME280_temperature;BME280_humidity;BME280_pressure;Samples;Min_cycle;Max_cycle;Signal;HPM_P1;HPM_P2
2022/01/11 00:00:10;;;;;;;5.20;3.75;;;20.30;40.30;;;;;;5036981;28;20041;-61
2022/01/11 00:02:40;;;;;;;5.38;3.60;;;20.30;40.40;;;;;;5038058;28;20397;-61
2022/01/11 00:05:06;;;;;;;4.97;3.78;;;20.30;40.30;;;;;;5038766;28;20040;-60
2022/01/11 00:07:33;;;;;;;3.80;3.47;;;20.30;40.30;;;;;;5036505;28;20049;-61
2022/01/11 00:10:00;;;;;;;4.45;3.70;;;20.30;40.20;;;;;;5032857;28;33007;-61
2022/01/11 00:12:26;;;;;;;6.03;3.63;;;20.30;40.10;;;;;;5038753;28;20412;-60
2022/01/11 00:14:52;;;;;;;5.30;3.78;;;20.30;40.10;;;;;;5036913;28;20359;-61
2022/01/11 00:17:17;;;;;;;4.30;3.65;;;20.30;40.00;;;;;;5043932;28;20041;-61
2022/01/11 00:19:45;;;;;;;3.50;3.20;;;20.30;40.00;;;;;;5035192;28;20184;-61
2022/01/11 00:22:17;;;;;;;4.43;3.50;;;20.30;40.00;;;;;;5035131;28;20045;-60
2022/01/11 00:24:43;;;;;;;4.57;3.42;;;20.30;39.90;;;;;;5035203;28;20159;-61
2022/01/11 00:27:09;;;;;;;3.47;3.17;;;20.30;39.90;;;;;;5036113;28;20045;-61
2022/01/11 00:29:40;;;;;;;6.30;3.78;;;20.30;39.80;;;;;;5035331;28;20045;-60
2022/01/11 00:32:11;;;;;;;3.53;3.22;;;20.30;39.80;;;;;;5035619;28;20048;-61
2022/01/11 00:34:51;;;;;;;3.33;2.83;;;20.20;39.70;;;;;;5037402;28;20037;-61
2022/01/11 00:37:18;;;;;;;3.20;3.00;;;20.20;39.70;;;;;;5034754;28;40838;-61
2022/01/11 00:39:45;;;;;;;3.85;3.38;;;20.20;39.60;;;;;;5035795;28;20091;-61
2022/01/11 00:42:13;;;;;;;4.10;3.38;;;20.20;39.60;;;;;;5036868;28;20037;-61
2022/01/11 00:44:39;;;;;;;4.50;3.20;;;20.20;39.50;;;;;;5036805;28;20076;-62
2022/01/11 00:47:05;;;;;;;3.55;3.22;;;20.20;39.40;;;;;;5035684;28;20064;-60
2022/01/11 00:49:33;;;;;;;4.28;3.60;;;20.20;39.50;;;;;;5036479;28;20516;-61
2022/01/11 00:51:59;;;;;;;3.70;3.30;;;20.20;39.40;;;;;;5033468;28;43204;-61
2022/01/11 00:54:24;;;;;;;3.25;2.95;;;20.20;39.40;;;;;;5036745;28;20380;-61
2022/01/11 00:56:50;;;;;;;3.30;3.00;;;20.20;39.40;;;;;;5036411;28;20127;-61
2022/01/11 00:59:15;;;;;;;4.15;3.28;;;20.20;39.30;;;;;;5033909;28;20041;-61
2022/01/11 01:01:41;;;;;;;4.38;3.50;;;20.20;39.30;;;;;;5037116;28;20378;-61
2022/01/11 01:04:08;;;;;;;3.80;3.28;;;20.20;39.20;;;;;;5032637;28;20056;-60
2022/01/11 01:06:34;;;;;;;4.68;3.53;;;20.20;39.20;;;;;;5034071;28;35535;-61
2022/01/11 01:09:00;;;;;;;4.43;3.17;;;20.20;39.10;;;;;;5036743;28;20053;-61
2022/01/11 01:11:26;;;;;;;4.60;2.83;;;20.20;39.10;;;;;;5036320;28;20037;-61
2022/01/11 01:13:52;;;;;;;5.45;3.40;;;20.20;39.00;;;;;;5035813;28;20491;-61
2022/01/11 01:16:19;;;;;;;4.32;3.13;;;20.10;38.90;;;;;;5035580;28;20060;-61
2022/01/11 01:18:45;;;;;;;4.28;2.90;;;20.10;38.90;;;;;;5039049;28;33377;-61
2022/01/11 01:21:11;;;;;;;5.35;3.50;;;20.10;39.00;;;;;;5035910;28;20530;-61
2022/01/11 01:23:37;;;;;;;6.07;3.20;;;20.10;39.10;;;;;;5036950;28;20124;-60
2022/01/11 01:26:03;;;;;;;6.88;3.38;;;20.10;39.30;;;;;;5038166;28;20076;-61
2022/01/11 01:28:28;;;;;;;3.50;3.20;;;20.10;39.30;;;;;;5048799;28;20421;-61
2022/01/11 01:31:00;;;;;;;3.63;3.33;;;20.10;39.30;;;;;;5035599;28;20075;-61
2022/01/11 01:33:25;;;;;;;5.75;3.28;;;20.10;39.40;;;;;;5034381;28;20033;-61
2022/01/11 01:35:58;;;;;;;3.80;3.50;;;20.10;39.40;;;;;;5034408;28;20067;-60
2022/01/11 01:38:25;;;;;;;3.60;3.10;;;20.10;39.50;;;;;;5036009;28;20112;-61
2022/01/11 01:40:54;;;;;;;3.92;3.55;;;20.10;39.50;;;;;;5037843;28;20037;-61
2022/01/11 01:43:20;;;;;;;3.65;3.40;;;20.10;39.50;;;;;;5035661;28;20045;-60
2022/01/11 01:45:48;;;;;;;3.53;3.22;;;20.10;39.50;;;;;;5037468;28;20885;-61
2022/01/11 01:48:15;;;;;;;3.55;3.25;;;20.10;39.60;;;;;;5034505;28;38632;-61
2022/01/11 01:50:42;;;;;;;3.85;3.53;;;20.10;39.50;;;;;;5037276;28;20087;-61
2022/01/11 01:53:11;;;;;;;4.38;3.97;;;20.00;39.40;;;;;;5035204;28;20048;-61
2022/01/11 01:55:39;;;;;;;4.70;3.85;;;20.10;39.50;;;;;;5036451;28;20049;-61
2022/01/11 01:58:05;;;;;;;3.80;3.50;;;20.00;39.40;;;;;;5036427;28;20049;-60
2022/01/11 02:00:30;;;;;;;4.72;4.32;;;20.00;39.40;;;;;;5034270;28;35501;-60
2022/01/11 02:03:12;;;;;;;6.22;3.90;;;20.00;39.40;;;;;;5033208;28;20521;-61
2022/01/11 02:05:38;;;;;;;5.65;3.90;;;20.00;39.40;;;;;;5034733;28;20046;-61
2022/01/11 02:08:06;;;;;;;4.47;4.13;;;20.00;39.40;;;;;;5032753;28;20038;-61
2022/01/11 02:10:33;;;;;;;6.22;3.85;;;20.00;39.40;;;;;;5040752;28;20849;-61
2022/01/11 02:13:00;;;;;;;4.10;3.70;;;20.00;39.40;;;;;;5034672;28;20044;-61
2022/01/11 02:15:26;;;;;;;4.20;3.80;;;20.00;39.40;;;;;;5029515;28;40557;-61
2022/01/11 02:17:52;;;;;;;5.97;3.95;;;20.00;39.40;;;;;;5031067;28;20067;-61
2022/01/11 02:20:18;;;;;;;4.65;4.30;;;20.00;39.40;;;;;;5035082;28;20394;-61
2022/01/11 02:22:43;;;;;;;4.50;4.10;;;20.00;39.40;;;;;;5032917;28;20044;-61
2022/01/11 02:25:09;;;;;;;4.82;4.13;;;20.00;39.30;;;;;;5037139;28;20037;-61
2022/01/11 02:27:35;;;;;;;10.23;4.35;;;20.00;39.30;;;;;;5034123;28;20128;-61
2022/01/11 02:30:02;;;;;;;4.38;3.97;;;19.90;39.20;;;;;;5034032;28;42996;-61
2022/01/11 02:32:27;;;;;;;8.38;4.20;;;19.90;39.20;;;;;;5031818;28;20095;-61
2022/01/11 02:34:53;;;;;;;5.03;4.32;;;19.90;39.20;;;;;;5032426;28;20045;-61
2022/01/11 02:37:19;;;;;;;8.07;4.32;;;19.90;39.20;;;;;;5033989;28;20037;-61
2022/01/11 02:39:45;;;;;;;4.97;3.80;;;19.90;39.20;;;;;;5036174;28;20036;-61
2022/01/11 02:42:11;;;;;;;5.35;4.13;;;19.90;39.10;;;;;;5033714;28;20551;-61
2022/01/11 02:44:37;;;;;;;4.82;4.43;;;19.90;39.10;;;;;;5032605;28;48082;-61
2022/01/11 02:47:04;;;;;;;4.82;3.88;;;19.90;39.10;;;;;;5035196;28;20037;-60
2022/01/11 02:49:29;;;;;;;4.53;4.05;;;19.90;39.00;;;;;;5034473;28;20072;-60
2022/01/11 02:51:55;;;;;;;4.05;3.75;;;19.90;39.00;;;;;;5035191;28;20123;-61
2022/01/11 02:54:22;;;;;;;5.18;3.95;;;19.90;39.00;;;;;;5032890;28;20037;-61
2022/01/11 02:56:47;;;;;;;4.35;3.88;;;19.90;39.00;;;;;;5033474;28;38196;-60
2022/01/11 02:59:13;;;;;;;4.28;3.85;;;19.80;39.00;;;;;;5036896;28;20051;-61
2022/01/11 03:01:39;;;;;;;5.28;4.43;;;19.80;38.90;;;;;;5030647;28;20072;-60
2022/01/11 03:04:05;;;;;;;4.05;3.75;;;19.80;38.90;;;;;;5032277;28;20103;-61
2022/01/11 03:06:30;;;;;;;4.55;4.15;;;19.80;38.90;;;;;;5030843;28;20045;-61
2022/01/11 03:08:56;;;;;;;5.63;3.90;;;19.80;39.00;;;;;;5032993;28;20073;-61
2022/01/11 03:11:23;;;;;;;4.78;4.38;;;19.80;38.90;;;;;;5036839;28;37867;-61
2022/01/11 03:13:49;;;;;;;4.32;3.92;;;19.80;38.90;;;;;;5033348;28;20052;-61
2022/01/11 03:16:18;;;;;;;5.38;4.22;;;19.80;38.90;;;;;;5037058;28;20031;-61
2022/01/11 03:18:46;;;;;;;4.88;4.40;;;19.80;38.90;;;;;;5037386;28;20102;-60
2022/01/11 03:21:11;;;;;;;4.70;4.18;;;19.80;38.90;;;;;;5033357;28;20508;-61
2022/01/11 03:23:37;;;;;;;4.80;3.97;;;19.80;38.90;;;;;;5035625;28;20045;-61
2022/01/11 03:26:03;;;;;;;4.88;4.15;;;19.80;38.80;;;;;;5032181;28;43164;-60
2022/01/11 03:28:30;;;;;;;5.82;4.00;;;19.80;38.90;;;;;;5035016;28;20080;-61
2022/01/11 03:30:56;;;;;;;5.22;4.72;;;19.70;38.80;;;;;;5034633;28;20037;-60
2022/01/11 03:33:22;;;;;;;6.40;4.45;;;19.70;38.80;;;;;;5033720;28;20044;-61
2022/01/11 03:35:49;;;;;;;4.95;4.43;;;19.70;38.80;;;;;;5048137;28;20046;-60
2022/01/11 03:38:15;;;;;;;11.07;5.00;;;19.70;38.80;;;;;;5033680;28;20160;-61
2022/01/11 03:40:42;;;;;;;10.15;4.90;;;19.70;38.80;;;;;;5031621;28;33289;-61
2022/01/11 03:43:08;;;;;;;12.00;4.80;;;19.70;38.80;;;;;;5033265;28;20044;-61
2022/01/11 03:45:34;;;;;;;9.68;5.22;;;19.70;38.90;;;;;;5037647;28;20057;-61
2022/01/11 03:48:01;;;;;;;11.25;5.13;;;19.70;38.80;;;;;;5038507;28;20044;-61
2022/01/11 03:50:30;;;;;;;11.32;4.82;;;19.70;38.80;;;;;;5039683;28;20110;-61
2022/01/11 03:53:06;;;;;;;7.78;5.35;;;19.70;38.80;;;;;;5040592;28;20051;-60
2022/01/11 03:55:44;;;;;;;7.50;5.25;;;19.70;38.70;;;;;;5037977;28;20060;-61
2022/01/11 03:58:12;;;;;;;9.00;5.50;;;19.70;39.40;;;;;;5038224;28;20056;-61
2022/01/11 04:00:38;;;;;;;8.50;5.32;;;19.60;38.60;;;;;;5039904;28;20047;-61
2022/01/11 04:03:04;;;;;;;7.45;5.47;;;19.60;38.60;;;;;;5039466;28;20053;-60
2022/01/11 04:05:30;;;;;;;9.05;5.10;;;19.60;38.60;;;;;;5035469;28;20167;-61
2022/01/11 04:07:55;;;;;;;6.93;5.68;;;19.60;38.60;;;;;;5035900;28;43382;-61
2022/01/11 04:10:21;;;;;;;7.63;5.68;;;19.60;38.50;;;;;;5038269;28;20132;-61
2022/01/11 04:12:48;;;;;;;7.82;5.40;;;19.60;38.50;;;;;;5036133;28;20045;-61
2022/01/11 04:15:14;;;;;;;8.85;5.20;;;19.60;38.50;;;;;;5038798;28;20037;-61
2022/01/11 04:17:40;;;;;;;6.75;5.88;;;19.60;38.50;;;;;;5037952;28;20404;-61
2022/01/11 04:20:06;;;;;;;7.72;5.88;;;19.60;38.50;;;;;;5037679;28;20179;-61
2022/01/11 04:22:32;;;;;;;8.48;5.70;;;19.60;38.50;;;;;;5035492;28;40640;-60
2022/01/11 04:24:58;;;;;;;6.55;5.47;;;19.60;38.50;;;;;;5037001;28;20091;-61
2022/01/11 04:27:23;;;;;;;6.47;5.82;;;19.60;38.60;;;;;;5039480;28;20029;-61
2022/01/11 04:29:49;;;;;;;8.30;6.15;;;19.60;38.50;;;;;;5035242;28;20041;-61
2022/01/11 04:32:14;;;;;;;6.25;5.65;;;19.50;38.40;;;;;;5037985;28;20033;-61
2022/01/11 04:34:40;;;;;;;6.93;5.63;;;19.50;38.40;;;;;;5036848;28;20034;-60
2022/01/11 04:37:05;;;;;;;6.50;5.60;;;19.50;38.40;;;;;;5036019;28;37829;-60
2022/01/11 04:39:31;;;;;;;6.53;5.60;;;19.50;38.40;;;;;;5035086;28;20049;-61
2022/01/11 04:41:56;;;;;;;7.07;5.57;;;19.50;38.40;;;;;;5037039;28;20079;-61
2022/01/11 04:44:22;;;;;;;6.97;5.80;;;19.50;38.40;;;;;;5038003;28;20075;-61
2022/01/11 04:46:48;;;;;;;6.47;5.80;;;19.50;38.40;;;;;;5023005;28;20052;-61
2022/01/11 04:49:13;;;;;;;6.95;5.88;;;19.50;38.40;;;;;;5036568;28;20045;-61
2022/01/11 04:51:39;;;;;;;6.80;5.50;;;19.50;38.40;;;;;;5035654;28;35979;-61
2022/01/11 04:54:05;;;;;;;6.57;5.88;;;19.50;38.40;;;;;;5034634;28;20119;-59
2022/01/11 04:56:30;;;;;;;6.50;5.90;;;19.50;38.40;;;;;;5036415;28;20054;-61
2022/01/11 04:58:57;;;;;;;7.95;6.35;;;19.50;38.40;;;;;;5036649;28;20147;-61
2022/01/11 05:01:23;;;;;;;7.22;5.95;;;19.50;38.40;;;;;;5033873;28;20045;-61
2022/01/11 05:03:48;;;;;;;6.60;5.93;;;19.50;38.40;;;;;;5034017;28;38078;-62
2022/01/11 05:06:14;;;;;;;8.05;5.82;;;19.50;38.40;;;;;;5033245;28;20131;-60
2022/01/11 05:08:42;;;;;;;6.68;5.97;;;19.50;38.50;;;;;;5037068;28;20136;-61
2022/01/11 05:11:08;;;;;;;7.70;6.03;;;19.50;38.40;;;;;;5036562;28;20045;-61
2022/01/11 05:13:34;;;;;;;6.32;5.60;;;19.50;38.50;;;;;;5035929;28;20064;-60
2022/01/11 05:16:02;;;;;;;6.60;6.00;;;19.50;38.40;;;;;;5036987;28;20068;-60
2022/01/11 05:18:29;;;;;;;6.20;5.60;;;19.50;38.50;;;;;;5030832;28;38056;-60
2022/01/11 05:20:54;;;;;;;5.93;5.32;;;19.50;38.40;;;;;;5032010;28;20128;-60
2022/01/11 05:23:20;;;;;;;7.47;5.82;;;19.50;38.50;;;;;;5035470;28;20055;-60
2022/01/11 05:25:45;;;;;;;6.28;5.45;;;19.50;38.50;;;;;;5033719;28;20049;-61
2022/01/11 05:28:11;;;;;;;6.72;5.75;;;19.50;38.60;;;;;;5032363;28;20484;-61
2022/01/11 05:30:37;;;;;;;6.00;5.40;;;19.50;38.60;;;;;;5034531;28;20037;-60
2022/01/11 05:33:03;;;;;;;6.78;5.45;;;19.60;38.70;;;;;;5034635;28;37765;-61
2022/01/11 05:35:29;;;;;;;6.63;6.00;;;19.60;38.80;;;;;;5036198;28;20049;-61
2022/01/11 05:37:54;;;;;;;6.00;5.40;;;19.60;38.70;;;;;;5034277;28;20049;-61
2022/01/11 05:40:20;;;;;;;6.03;5.43;;;19.60;38.60;;;;;;5035333;28;20560;-61
2022/01/11 05:42:49;;;;;;;6.43;5.82;;;19.60;38.60;;;;;;5037972;28;20503;-61
2022/01/11 05:45:15;;;;;;;7.00;6.30;;;19.60;38.60;;;;;;5037320;28;20044;-60
2022/01/11 05:47:41;;;;;;;6.80;5.80;;;19.60;38.60;;;;;;5040213;28;40883;-62
2022/01/11 05:50:09;;;;;;;5.93;5.43;;;19.60;38.60;;;;;;5034024;28;20208;-61
2022/01/11 05:52:36;;;;;;;6.97;6.15;;;19.60;38.60;;;;;;5037470;28;20029;-61
2022/01/11 05:55:03;;;;;;;12.13;6.03;;;19.70;38.70;;;;;;5037308;28;20044;-61
2022/01/11 05:57:29;;;;;;;7.45;5.70;;;19.70;38.70;;;;;;5035577;28;20045;-61
2022/01/11 05:59:54;;;;;;;8.15;6.05;;;19.70;38.80;;;;;;5035329;28;33256;-61
2022/01/11 06:02:20;;;;;;;6.82;5.47;;;19.70;38.90;;;;;;5033909;28;20052;-61
2022/01/11 06:04:46;;;;;;;7.78;5.88;;;19.70;39.00;;;;;;5037928;28;20045;-61
2022/01/11 06:07:11;;;;;;;6.55;5.93;;;19.80;39.00;;;;;;5036407;28;20082;-61
2022/01/11 06:09:37;;;;;;;6.28;5.30;;;19.80;39.10;;;;;;5035788;28;20041;-61
2022/01/11 06:12:03;;;;;;;6.38;5.65;;;19.80;39.20;;;;;;5034814;28;20397;-61
2022/01/11 06:14:28;;;;;;;6.20;5.60;;;19.80;39.20;;;;;;5032454;28;42919;-61
2022/01/11 06:16:54;;;;;;;6.10;5.50;;;19.80;39.30;;;;;;5036244;28;20074;-61
2022/01/11 06:19:19;;;;;;;8.25;5.78;;;19.80;39.20;;;;;;5035096;28;20049;-61
2022/01/11 06:21:45;;;;;;;6.20;5.60;;;19.80;39.30;;;;;;5034883;28;20178;-61
2022/01/11 06:24:12;;;;;;;6.30;5.70;;;19.80;39.30;;;;;;5034625;28;20041;-59
2022/01/11 06:26:37;;;;;;;5.82;5.32;;;19.80;39.20;;;;;;5036932;28;20798;-60
2022/01/11 06:29:03;;;;;;;6.13;5.53;;;19.90;39.30;;;;;;5032047;28;33060;-61
2022/01/11 06:31:30;;;;;;;5.40;4.90;;;19.90;39.30;;;;;;5034803;28;20735;-61
2022/01/11 06:33:56;;;;;;;6.35;5.18;;;19.90;39.30;;;;;;5035827;28;20731;-62
2022/01/11 06:36:22;;;;;;;7.30;5.22;;;19.90;39.40;;;;;;5035157;28;20049;-58
2022/01/11 06:38:48;;;;;;;6.28;5.32;;;19.90;39.40;;;;;;5034314;28;20044;-58
2022/01/11 06:41:13;;;;;;;5.90;5.25;;;19.90;39.30;;;;;;5033740;28;20500;-57
2022/01/11 06:43:40;;;;;;;5.95;5.30;;;20.00;39.60;;;;;;5032791;28;40752;-58
2022/01/11 06:46:06;;;;;;;5.88;5.28;;;20.00;39.60;;;;;;5035243;28;20045;-57
2022/01/11 06:48:32;;;;;;;7.90;5.90;;;20.00;39.70;;;;;;5035915;28;20787;-58
2022/01/11 06:50:58;;;;;;;6.55;5.45;;;20.00;39.90;;;;;;5034793;28;20434;-58
2022/01/11 06:53:24;;;;;;;9.75;5.55;;;20.00;40.00;;;;;;5035723;28;20033;-58
2022/01/11 06:55:50;;;;;;;6.55;5.45;;;20.00;40.20;;;;;;5032452;28;20037;-58
2022/01/11 06:58:16;;;;;;;6.53;5.07;;;20.10;40.20;;;;;;5039963;28;20135;-58
2022/01/11 07:00:43;;;;;;;6.57;5.32;;;20.10;40.30;;;;;;5035293;28;20120;-58
2022/01/11 07:03:08;;;;;;;6.47;5.30;;;20.10;40.40;;;;;;5034250;28;20143;-61
2022/01/11 07:05:34;;;;;;;6.25;5.28;;;20.10;40.40;;;;;;5033837;28;20503;-61
2022/01/11 07:08:00;;;;;;;5.30;4.55;;;20.10;40.50;;;;;;5034852;28;20136;-61
2022/01/11 07:10:25;;;;;;;7.18;5.10;;;20.20;40.50;;;;;;5034099;28;41044;-60
2022/01/11 07:12:51;;;;;;;5.70;4.78;;;20.20;40.40;;;;;;5033619;28;20372;-59
2022/01/11 07:15:16;;;;;;;6.80;5.00;;;20.20;40.40;;;;;;5035232;28;20079;-61
2022/01/11 07:17:42;;;;;;;5.25;4.75;;;20.20;40.40;;;;;;5036849;28;20114;-60
2022/01/11 07:20:09;;;;;;;5.47;4.90;;;20.20;40.30;;;;;;5036836;28;20439;-60
2022/01/11 07:22:37;;;;;;;5.97;5.38;;;20.20;40.20;;;;;;5037855;28;20037;-60
2022/01/11 07:25:04;;;;;;;6.22;5.10;;;20.20;40.10;;;;;;5034826;28;36274;-60
2022/01/11 07:27:31;;;;;;;5.97;5.00;;;20.20;40.10;;;;;;5037902;28;20123;-60
2022/01/11 07:29:57;;;;;;;4.85;4.35;;;20.30;40.10;;;;;;5038095;28;20049;-61
2022/01/11 07:32:22;;;;;;;4.85;4.35;;;20.30;40.00;;;;;;5037803;28;20491;-60
2022/01/11 07:34:48;;;;;;;4.70;4.30;;;20.30;39.90;;;;;;5036511;28;20090;-60
2022/01/11 07:37:14;;;;;;;7.85;4.97;;;20.30;39.90;;;;;;5038629;28;20072;-59
2022/01/11 07:39:40;;;;;;;5.90;5.30;;;20.30;39.80;;;;;;5035409;28;45455;-60
2022/01/11 07:42:06;;;;;;;4.95;4.45;;;20.30;39.80;;;;;;5036425;28;20453;-59
2022/01/11 07:44:31;;;;;;;5.07;4.15;;;20.30;39.60;;;;;;5038918;28;20038;-60
2022/01/11 07:46:57;;;;;;;5.03;4.35;;;20.30;39.50;;;;;;5035391;28;20127;-60
2022/01/11 07:49:23;;;;;;;5.97;5.00;;;20.40;39.60;;;;;;5036595;28;20037;-60
2022/01/11 07:51:48;;;;;;;4.93;4.43;;;20.30;39.40;;;;;;5037117;28;20558;-60
2022/01/11 07:54:14;;;;;;;5.70;4.55;;;20.40;39.40;;;;;;5033694;28;43323;-60
2022/01/11 07:56:39;;;;;;;4.68;4.28;;;20.40;39.30;;;;;;5036537;28;20041;-60
2022/01/11 07:59:05;;;;;;;4.55;4.15;;;20.40;39.30;;;;;;5038802;28;20579;-61
2022/01/11 08:01:31;;;;;;;5.15;4.53;;;20.40;40.00;;;;;;5037883;28;20072;-60
2022/01/11 08:03:59;;;;;;;5.05;4.50;;;20.40;39.20;;;;;;5035825;28;20140;-59
2022/01/11 08:06:28;;;;;;;5.10;4.60;;;20.40;39.10;;;;;;5036596;28;38156;-60
2022/01/11 08:08:53;;;;;;;4.35;4.03;;;20.40;39.10;;;;;;5036976;28;21031;-60
2022/01/11 08:11:19;;;;;;;5.57;4.97;;;20.40;39.00;;;;;;5039034;28;20496;-60
2022/01/11 08:13:44;;;;;;;4.55;4.15;;;20.40;39.00;;;;;;5038298;28;20396;-60
2022/01/11 08:16:10;;;;;;;4.65;4.25;;;20.50;39.00;;;;;;5037820;28;20037;-61
2022/01/11 08:18:35;;;;;;;4.50;4.15;;;20.50;38.90;;;;;;5034862;28;20397;-61
2022/01/11 08:21:01;;;;;;;4.88;4.47;;;20.50;38.90;;;;;;5035312;28;41079;-59
2022/01/11 08:23:27;;;;;;;4.85;4.43;;;20.50;38.80;;;;;;5036426;28;20052;-60
2022/01/11 08:25:52;;;;;;;6.47;4.30;;;20.50;38.80;;;;;;5035822;28;20049;-61
2022/01/11 08:28:18;;;;;;;5.03;4.53;;;20.50;38.80;;;;;;5038687;28;20041;-60
2022/01/11 08:30:43;;;;;;;4.93;4.43;;;20.50;38.80;;;;;;5036844;28;20037;-60
2022/01/11 08:33:09;;;;;;;5.07;4.60;;;20.50;38.80;;;;;;5038806;28;20424;-59
2022/01/11 08:35:35;;;;;;;5.78;4.47;;;20.50;38.80;;;;;;5032889;28;37860;-59
2022/01/11 08:38:02;;;;;;;6.00;4.70;;;20.50;39.50;;;;;;5036697;28;20045;-60
2022/01/11 08:40:27;;;;;;;4.70;4.30;;;20.50;38.70;;;;;;5034638;28;20149;-60
2022/01/11 08:42:53;;;;;;;5.07;4.60;;;20.50;38.70;;;;;;5035328;28;20116;-60
2022/01/11 08:45:20;;;;;;;4.78;4.35;;;20.50;38.70;;;;;;5034913;28;20041;-59
2022/01/11 08:47:46;;;;;;;6.07;4.30;;;20.50;38.60;;;;;;5034434;28;20092;-60
2022/01/11 08:50:13;;;;;;;4.93;4.43;;;20.50;38.60;;;;;;5032359;28;45308;-61
2022/01/11 08:52:40;;;;;;;5.65;4.75;;;20.50;38.70;;;;;;5036407;28;20045;-61
2022/01/11 08:55:07;;;;;;;5.05;4.55;;;20.50;38.70;;;;;;5037807;28;20071;-60
2022/01/11 08:57:33;;;;;;;5.10;4.60;;;20.50;38.60;;;;;;5037030;28;20052;-60
2022/01/11 09:00:00;;;;;;;5.35;4.80;;;20.50;38.70;;;;;;5036139;28;20048;-61
2022/01/11 09:02:25;;;;;;;5.57;4.40;;;20.50;39.00;;;;;;5031946;28;38524;-60
2022/01/11 09:04:54;;;;;;;5.20;4.70;;;20.50;38.70;;;;;;5035637;28;20076;-60
2022/01/11 09:07:20;;;;;;;6.60;4.43;;;20.50;38.60;;;;;;5036678;28;20044;-60
2022/01/11 09:09:46;;;;;;;7.35;4.30;;;20.50;38.70;;;;;;5032373;28;20490;-60
2022/01/11 09:12:13;;;;;;;5.13;4.63;;;20.60;38.70;;;;;;5032555;28;20040;-60
2022/01/11 09:14:39;;;;;;;5.22;4.72;;;20.60;38.70;;;;;;5034295;28;20033;-60
2022/01/11 09:17:05;;;;;;;5.50;4.47;;;20.60;38.60;;;;;;5029746;28;37571;-59
2022/01/11 09:19:31;;;;;;;4.75;4.18;;;20.60;38.60;;;;;;5033995;28;20106;-60
2022/01/11 09:21:57;;;;;;;5.38;4.88;;;20.50;38.60;;;;;;5034709;28;20042;-60
2022/01/11 09:24:29;;;;;;;6.47;4.75;;;20.60;38.70;;;;;;5032954;28;20047;-60
2022/01/11 09:26:56;;;;;;;5.20;4.68;;;20.60;38.70;;;;;;5030845;28;20044;-60
2022/01/11 09:29:22;;;;;;;4.60;4.20;;;20.60;38.80;;;;;;5030838;28;21193;-60
2022/01/11 09:31:47;;;;;;;5.32;4.82;;;20.60;38.90;;;;;;5033220;28;35953;-60
2022/01/11 09:34:13;;;;;;;5.03;4.53;;;20.60;38.90;;;;;;5024935;28;20041;-59
2022/01/11 09:36:39;;;;;;;5.70;4.47;;;20.60;38.90;;;;;;5034615;28;20038;-60
2022/01/11 09:39:04;;;;;;;4.65;4.25;;;20.60;38.90;;;;;;5033999;28;20409;-60
2022/01/11 09:41:30;;;;;;;5.00;4.50;;;20.60;39.00;;;;;;5034630;28;21641;-61
2022/01/11 09:43:57;;;;;;;5.07;4.50;;;20.60;39.00;;;;;;5037451;28;20122;-60
2022/01/11 09:46:23;;;;;;;6.10;4.90;;;20.60;39.00;;;;;;5032283;28;40606;-61
2022/01/11 09:48:49;;;;;;;4.68;4.18;;;20.60;39.10;;;;;;5035541;28;20043;-60
2022/01/11 09:51:15;;;;;;;5.20;4.70;;;20.60;39.10;;;;;;5034238;28;20073;-60
2022/01/11 09:53:41;;;;;;;5.20;4.70;;;20.60;39.20;;;;;;5034120;28;20047;-59
2022/01/11 09:56:08;;;;;;;5.68;5.10;;;20.70;39.20;;;;;;5036001;28;20037;-60
2022/01/11 09:58:35;;;;;;;5.35;4.85;;;20.60;39.00;;;;;;5034483;28;20110;-60
2022/01/11 10:01:02;;;;;;;5.13;4.68;;;20.60;39.00;;;;;;5036931;28;37987;-60
2022/01/11 10:03:28;;;;;;;5.88;4.80;;;20.70;39.10;;;;;;5035879;28;20919;-61
2022/01/11 10:05:54;;;;;;;5.53;4.82;;;20.70;39.00;;;;;;5036005;28;20072;-60
2022/01/11 10:08:28;;;;;;;5.13;4.72;;;20.70;39.00;;;;;;5034053;28;21073;-60
2022/01/11 10:10:59;;;;;;;5.18;4.63;;;20.70;39.00;;;;;;5034684;28;20037;-61
2022/01/11 10:13:52;;;;;;;4.90;4.40;;;20.70;39.00;;;;;;5029272;28;40589;-60
2022/01/11 10:16:24;;;;;;;5.55;4.80;;;20.70;39.00;;;;;;5029361;28;20049;-60
2022/01/11 10:18:52;;;;;;;5.25;4.43;;;20.70;39.00;;;;;;5033037;28;20045;-60
2022/01/11 10:21:43;;;;;;;5.10;4.53;;;20.70;39.00;;;;;;5034820;28;20451;-61
2022/01/11 10:24:26;;;;;;;4.80;4.40;;;20.70;39.00;;;;;;5031945;28;20619;-61
2022/01/11 10:26:54;;;;;;;5.38;4.70;;;20.70;39.00;;;;;;5028949;28;42987;-57
2022/01/11 10:29:42;;;;;;;5.55;4.53;;;20.70;38.90;;;;;;5033964;28;20045;-58
2022/01/11 10:32:17;;;;;;;4.55;4.15;;;20.70;38.80;;;;;;5033852;28;20037;-58
2022/01/11 10:34:47;;;;;;;4.90;4.40;;;20.70;38.80;;;;;;5034095;28;20076;-58
2022/01/11 10:37:13;;;;;;;6.33;5.00;;;20.70;38.70;;;;;;5033518;28;20037;-57
2022/01/11 10:39:41;;;;;;;4.75;4.35;;;20.70;38.70;;;;;;5035519;28;20283;-57
2022/01/11 10:42:28;;;;;;;6.00;4.85;;;20.70;38.60;;;;;;5031623;28;37777;-58
2022/01/11 10:44:58;;;;;;;4.80;4.35;;;20.70;38.50;;;;;;5035424;28;20041;-58
2022/01/11 10:47:37;;;;;;;4.67;4.13;;;20.70;38.50;;;;;;5034442;28;20056;-58
2022/01/11 10:50:12;;;;;;;4.88;4.47;;;20.70;38.50;;;;;;5030766;28;20303;-58
2022/01/11 10:52:39;;;;;;;5.95;4.30;;;20.70;38.50;;;;;;5031431;28;20420;-58
2022/01/11 10:55:07;;;;;;;5.00;4.50;;;20.70;38.60;;;;;;5032955;28;43173;-58
2022/01/11 10:57:37;;;;;;;5.32;4.65;;;20.70;38.60;;;;;;5033447;28;20038;-57
2022/01/11 11:00:14;;;;;;;5.50;4.70;;;20.80;38.70;;;;;;5036179;28;20047;-59
2022/01/11 11:02:41;;;;;;;5.03;4.53;;;20.80;38.60;;;;;;5016538;28;20610;-58
2022/01/11 11:05:29;;;;;;;4.95;4.45;;;20.80;38.60;;;;;;5035256;28;20038;-58
2022/01/11 11:08:04;;;;;;;5.40;4.85;;;20.80;38.50;;;;;;5034484;28;20474;-59
2022/01/11 11:10:32;;;;;;;4.75;4.35;;;20.80;38.50;;;;;;5029918;28;45446;-60
2022/01/11 11:12:59;;;;;;;5.65;4.35;;;20.80;38.50;;;;;;5032767;28;20907;-57
2022/01/11 11:15:35;;;;;;;7.63;5.00;;;20.80;38.50;;;;;;5037703;28;20373;-57
2022/01/11 11:18:03;;;;;;;5.65;5.07;;;20.80;38.40;;;;;;5033731;28;20412;-58
2022/01/11 11:20:28;;;;;;;5.88;4.90;;;20.80;38.50;;;;;;5034923;28;20064;-61
2022/01/11 11:22:54;;;;;;;5.93;4.70;;;20.80;38.50;;;;;;5032546;28;20072;-61
2022/01/11 11:25:20;;;;;;;6.57;5.38;;;20.80;38.60;;;;;;5031718;28;40821;-61
2022/01/11 11:27:46;;;;;;;5.60;5.07;;;20.80;38.80;;;;;;5032087;28;20067;-60
2022/01/11 11:30:12;;;;;;;5.97;5.13;;;20.80;38.80;;;;;;5033215;28;20085;-61
2022/01/11 11:32:38;;;;;;;5.10;4.60;;;20.80;38.90;;;;;;5031966;28;20029;-61
2022/01/11 11:35:04;;;;;;;6.43;4.80;;;20.80;39.00;;;;;;5030473;28;20033;-61
2022/01/11 11:37:34;;;;;;;6.05;4.80;;;20.80;39.00;;;;;;5029456;28;29076;-59
2022/01/11 11:40:06;;;;;;;6.60;5.20;;;20.80;39.20;;;;;;5033490;28;20040;-58
2022/01/11 11:42:33;;;;;;;6.63;5.63;;;20.80;39.30;;;;;;5031396;28;20075;-58
2022/01/11 11:45:00;;;;;;;5.22;4.72;;;20.80;39.50;;;;;;5030765;28;20585;-58
2022/01/11 11:47:35;;;;;;;5.70;5.10;;;20.90;39.70;;;;;;5031524;28;20041;-58
2022/01/11 11:50:05;;;;;;;6.20;5.50;;;20.80;39.80;;;;;;5031691;28;20077;-59
2022/01/11 11:52:38;;;;;;;6.10;5.50;;;20.90;40.60;;;;;;5035800;28;40676;-58
2022/01/11 11:55:16;;;;;;;6.88;5.22;;;20.90;39.90;;;;;;5036186;28;20034;-58
2022/01/11 11:57:42;;;;;;;7.55;5.03;;;20.80;39.80;;;;;;5035380;28;20033;-58
2022/01/11 12:00:11;;;;;;;7.10;5.65;;;20.90;39.80;;;;;;5034198;28;20129;-59
2022/01/11 12:02:49;;;;;;;6.35;5.40;;;20.90;39.90;;;;;;5033029;28;20057;-58
2022/01/11 12:05:40;;;;;;;5.82;5.07;;;20.90;39.90;;;;;;5037202;28;40798;-58
2022/01/11 12:08:29;;;;;;;7.20;4.75;;;20.90;39.90;;;;;;5037636;28;20128;-57
2022/01/11 12:10:58;;;;;;;6.57;5.72;;;20.90;40.00;;;;;;5037433;28;20074;-58
2022/01/11 12:13:47;;;;;;;6.07;5.28;;;20.90;40.00;;;;;;5033319;28;20901;-58
2022/01/11 12:16:25;;;;;;;6.43;5.43;;;20.90;40.20;;;;;;5033671;28;20045;-59
2022/01/11 12:18:52;;;;;;;8.00;5.25;;;20.90;40.20;;;;;;5035354;28;20392;-58
2022/01/11 12:21:18;;;;;;;14.20;5.28;;;20.90;40.20;;;;;;5032699;28;45352;-58
2022/01/11 12:23:44;;;;;;;5.85;5.13;;;20.90;40.30;;;;;;5035624;28;20750;-58
2022/01/11 12:26:16;;;;;;;5.60;4.63;;;20.90;40.30;;;;;;5037044;28;20640;-59
2022/01/11 12:29:04;;;;;;;7.57;5.35;;;21.00;40.30;;;;;;5035183;28;20038;-58
2022/01/11 12:31:51;;;;;;;6.32;4.68;;;20.90;40.20;;;;;;5035987;28;20057;-58
2022/01/11 12:34:17;;;;;;;6.22;5.32;;;21.00;40.40;;;;;;5031673;28;40763;-58
2022/01/11 12:36:56;;;;;;;5.78;4.72;;;21.00;40.50;;;;;;5036307;28;20041;-58
2022/01/11 12:39:28;;;;;;;7.13;5.07;;;21.00;40.50;;;;;;5035395;28;20039;-58
2022/01/11 12:41:55;;;;;;;5.85;5.25;;;21.00;41.20;;;;;;5036085;28;20037;-58
2022/01/11 12:45:35;;;;;;;6.65;5.07;;;21.00;40.50;;;;;;5035853;28;20084;-59
2022/01/11 12:47:17;;;;;;;5.68;4.95;;;21.00;40.50;;;;;;5033496;28;20057;-59